Time;durP1;ratioP1;P1;durP2;ratioP2;P2;SDS_P1;SDS_P2;PMS_P1;PMS_P2;Temp;Humidity;BMP_temperature;BMP_pressure;BME280_temperature;BME280_humidity;BME280_pressure;Samples;Min_cycle;Max_cycle;Signal;HPM_P1;HPM_P2
2021/12/06 00:00:24;;;;;;;0.10;0.10;;;2.00;99.90;;;;;;5060998;28;20711;-66
2021/12/06 00:02:53;;;;;;;0.17;0.17;;;2.00;99.90;;;;;;5060103;28;20686;-67
2021/12/06 00:05:21;;;;;;;0.20;0.20;;;2.00;99.90;;;;;;5077796;28;20644;-67
2021/12/06 00:07:48;;;;;;;0.20;0.20;;;2.00;99.90;;;;;;5059040;28;20764;-67
2021/12/06 00:10:16;;;;;;;0.20;0.20;;;2.00;99.90;;;;;;5061035;28;20616;-67
2021/12/06 00:12:43;;;;;;;0.20;0.20;;;2.00;99.90;;;;;;5078505;28;20652;-67
2021/12/06 00:15:12;;;;;;;0.13;0.13;;;2.00;99.90;;;;;;5076128;28;20608;-66
2021/12/06 00:17:40;;;;;;;0.20;0.20;;;2.00;99.90;;;;;;5059051;28;20659;-66
2021/12/06 00:20:10;;;;;;;0.20;0.20;;;2.00;99.90;;;;;;5060818;28;20749;-67
2021/12/06 00:22:37;;;;;;;0.20;0.20;;;1.90;99.90;;;;;;5060381;28;20745;-67
2021/12/06 00:25:07;;;;;;;0.10;0.10;;;1.90;99.90;;;;;;5061139;28;20654;-67
2021/12/06 00:27:38;;;;;;;0.17;0.17;;;1.90;99.90;;;;;;5062754;28;20657;-67
2021/12/06 00:30:07;;;;;;;0.13;0.13;;;1.90;99.90;;;;;;5059877;28;20746;-67
2021/12/06 00:32:34;;;;;;;0.10;0.10;;;1.90;99.90;;;;;;5078194;28;20697;-67
2021/12/06 00:35:01;;;;;;;0.10;0.10;;;1.90;99.90;;;;;;5058472;28;20628;-67
2021/12/06 00:37:33;;;;;;;0.10;0.10;;;1.90;99.90;;;;;;5057849;28;20651;-67
2021/12/06 00:40:02;;;;;;;0.17;0.17;;;1.90;99.90;;;;;;5077679;28;20658;-67
2021/12/06 00:42:33;;;;;;;0.10;0.10;;;1.90;99.90;;;;;;5060444;28;20689;-67
2021/12/06 00:45:02;;;;;;;0.10;0.10;;;1.90;99.90;;;;;;5078114;28;20616;-68
2021/12/06 00:47:29;;;;;;;0.10;0.10;;;1.90;99.90;;;;;;5059354;28;20650;-67
2021/12/06 00:49:56;;;;;;;0.10;0.10;;;1.90;99.90;;;;;;5078723;28;21053;-67
2021/12/06 00:52:23;;;;;;;0.10;0.10;;;1.90;99.90;;;;;;5060511;28;20632;-67
2021/12/06 00:54:51;;;;;;;0.10;0.10;;;1.90;99.90;;;;;;5059880;28;20616;-67
2021/12/06 00:57:18;;;;;;;0.13;0.13;;;1.90;99.90;;;;;;5058724;28;20732;-67
2021/12/06 00:59:46;;;;;;;0.10;0.10;;;1.80;99.90;;;;;;5058891;28;20628;-67
2021/12/06 01:02:16;;;;;;;0.10;0.10;;;1.90;99.90;;;;;;5060451;28;20612;-67
2021/12/06 01:04:44;;;;;;;0.10;0.10;;;1.80;99.90;;;;;;5060073;28;20616;-67
2021/12/06 01:07:12;;;;;;;0.20;0.20;;;1.90;99.90;;;;;;5076014;28;20664;-64
2021/12/06 01:09:40;;;;;;;0.10;0.10;;;1.80;99.90;;;;;;5060256;28;20624;-67
2021/12/06 01:12:09;;;;;;;0.10;0.10;;;1.80;99.90;;;;;;5075554;28;20608;-67
2021/12/06 01:14:36;;;;;;;0.10;0.10;;;1.80;99.90;;;;;;5056361;28;20655;-67
2021/12/06 01:17:05;;;;;;;0.10;0.10;;;1.80;99.90;;;;;;5077486;28;20690;-67
2021/12/06 01:19:36;;;;;;;0.10;0.10;;;1.80;99.90;;;;;;5059264;28;20627;-67
2021/12/06 01:22:16;;;;;;;0.10;0.10;;;1.80;99.90;;;;;;5059326;28;20685;-66
2021/12/06 01:24:51;;;;;;;0.10;0.10;;;1.80;99.90;;;;;;5057265;28;20615;-67
2021/12/06 01:27:37;;;;;;;0.10;0.10;;;1.80;99.90;;;;;;5060175;28;20748;-67
2021/12/06 01:30:23;;;;;;;0.10;0.10;;;1.80;99.90;;;;;;5069365;28;20632;-67
2021/12/06 01:33:32;;;;;;;0.10;0.10;;;1.80;99.90;;;;;;5058461;28;20710;-66
2021/12/06 01:39:13;;;;;;;0.10;0.10;;;1.80;99.90;;;;;;5059995;28;20620;-67
2021/12/06 01:41:45;;;;;;;0.20;0.20;;;1.80;99.90;;;;;;5064529;28;20675;-67
2021/12/06 01:44:14;;;;;;;0.10;0.10;;;1.70;99.90;;;;;;5057068;28;20634;-67
2021/12/06 01:46:52;;;;;;;0.10;0.10;;;1.70;99.90;;;;;;5059106;28;20747;-67
2021/12/06 01:49:22;;;;;;;0.10;0.10;;;1.70;99.90;;;;;;5060243;28;20624;-67
2021/12/06 01:51:53;;;;;;;0.13;0.13;;;1.60;99.90;;;;;;5060084;28;20632;-67
2021/12/06 01:54:21;;;;;;;0.10;0.10;;;1.60;99.90;;;;;;5059772;28;20739;-68
2021/12/06 01:56:50;;;;;;;0.10;0.10;;;1.60;99.90;;;;;;5076308;28;20662;-67
2021/12/06 01:59:18;;;;;;;0.20;0.20;;;1.50;99.90;;;;;;5059860;28;20649;-67
2021/12/06 02:01:45;;;;;;;0.10;0.10;;;1.50;99.90;;;;;;5058575;28;20627;-67
2021/12/06 02:04:13;;;;;;;0.10;0.10;;;1.50;99.90;;;;;;5060305;28;20623;-67
2021/12/06 02:06:40;;;;;;;0.10;0.10;;;1.40;99.90;;;;;;5059668;28;20651;-67
2021/12/06 02:09:13;;;;;;;0.10;0.10;;;1.40;99.90;;;;;;5058212;28;20801;-67
2021/12/06 02:11:41;;;;;;;0.10;0.10;;;1.40;99.90;;;;;;5060174;28;20620;-67
2021/12/06 02:14:24;;;;;;;0.20;0.20;;;1.40;99.90;;;;;;5061243;28;20651;-67
2021/12/06 02:17:03;;;;;;;0.10;0.10;;;1.40;99.90;;;;;;5062201;28;20708;-66
2021/12/06 02:19:33;;;;;;;0.20;0.20;;;1.40;99.90;;;;;;5061460;28;20615;-67
2021/12/06 02:22:03;;;;;;;0.20;0.20;;;1.40;99.90;;;;;;5062482;28;20626;-67
2021/12/06 02:24:32;;;;;;;0.10;0.10;;;1.40;99.90;;;;;;5062203;28;20623;-68
2021/12/06 02:27:00;;;;;;;0.10;0.10;;;1.40;99.90;;;;;;5060479;28;20754;-67
2021/12/06 02:29:29;;;;;;;0.10;0.10;;;1.40;99.90;;;;;;5062019;28;20734;-67
2021/12/06 02:31:56;;;;;;;0.10;0.10;;;1.40;99.90;;;;;;5062745;28;20640;-67
2021/12/06 02:34:23;;;;;;;0.10;0.10;;;1.40;99.90;;;;;;5061231;28;20655;-67
2021/12/06 02:36:51;;;;;;;0.20;0.20;;;1.40;99.90;;;;;;5061310;28;20743;-67
2021/12/06 02:39:23;;;;;;;0.10;0.10;;;1.40;99.90;;;;;;5078703;28;20622;-68
2021/12/06 02:41:52;;;;;;;0.20;0.20;;;1.40;99.90;;;;;;5062138;28;20651;-67
2021/12/06 02:44:20;;;;;;;0.20;0.20;;;1.40;99.90;;;;;;5061045;28;20628;-67
2021/12/06 02:46:48;;;;;;;0.10;0.10;;;1.40;99.90;;;;;;5076865;28;20667;-68
2021/12/06 02:49:16;;;;;;;0.17;0.17;;;1.40;99.90;;;;;;5060202;28;20626;-67
2021/12/06 02:51:43;;;;;;;0.17;0.17;;;1.40;99.90;;;;;;5062530;28;20622;-67
2021/12/06 02:54:11;;;;;;;0.10;0.10;;;1.40;99.90;;;;;;5060498;28;20695;-68
2021/12/06 02:56:52;;;;;;;0.10;0.10;;;1.40;99.90;;;;;;5052861;28;20720;-68
2021/12/06 02:59:22;;;;;;;0.10;0.10;;;1.40;99.90;;;;;;5061222;28;20612;-67
2021/12/06 03:01:53;;;;;;;0.10;0.10;;;1.40;99.90;;;;;;5060741;28;20648;-67
2021/12/06 03:04:21;;;;;;;0.10;0.10;;;1.40;99.90;;;;;;5069131;28;20646;-67
2021/12/06 03:06:53;;;;;;;0.10;0.10;;;1.40;99.90;;;;;;5060973;28;20651;-68
2021/12/06 03:09:23;;;;;;;0.10;0.10;;;1.40;99.90;;;;;;5062010;28;20719;-67
2021/12/06 03:11:54;;;;;;;0.20;0.20;;;1.40;99.90;;;;;;5067556;28;20704;-67
2021/12/06 03:14:24;;;;;;;0.10;0.10;;;1.40;99.90;;;;;;5059270;28;20755;-68
2021/12/06 03:16:54;;;;;;;0.10;0.10;;;1.40;99.90;;;;;;5059269;28;20654;-67
2021/12/06 03:19:22;;;;;;;0.20;0.20;;;1.40;99.90;;;;;;5061221;28;20656;-67
2021/12/06 03:21:49;;;;;;;0.20;0.20;;;1.40;99.90;;;;;;5058959;28;20685;-66
2021/12/06 03:24:18;;;;;;;0.17;0.17;;;1.40;99.90;;;;;;5059820;28;20623;-66
2021/12/06 03:26:46;;;;;;;0.10;0.10;;;1.40;99.90;;;;;;5058388;28;20651;-66
2021/12/06 03:29:15;;;;;;;0.10;0.10;;;1.40;99.90;;;;;;5060897;28;20628;-67
2021/12/06 03:31:43;;;;;;;0.10;0.10;;;1.40;99.90;;;;;;5059902;28;20624;-67
2021/12/06 03:34:11;;;;;;;0.10;0.10;;;1.40;99.90;;;;;;5077159;28;20689;-68
2021/12/06 03:36:40;;;;;;;0.17;0.17;;;1.40;99.90;;;;;;5059961;28;20656;-67
2021/12/06 03:39:11;;;;;;;0.10;0.10;;;1.40;99.90;;;;;;5059906;28;20619;-68
2021/12/06 03:41:39;;;;;;;0.10;0.10;;;1.40;99.90;;;;;;5058517;28;20620;-67
2021/12/06 03:44:06;;;;;;;0.10;0.10;;;1.40;99.90;;;;;;5057267;28;20673;-67
2021/12/06 03:46:37;;;;;;;0.20;0.20;;;1.40;99.90;;;;;;5058281;28;20648;-68
2021/12/06 03:49:08;;;;;;;0.13;0.13;;;1.40;99.90;;;;;;5059302;28;20632;-67
2021/12/06 03:51:36;;;;;;;0.10;0.10;;;1.40;99.90;;;;;;5060758;28;20626;-68
2021/12/06 03:54:04;;;;;;;0.17;0.17;;;1.40;99.90;;;;;;5058714;28;20659;-67
2021/12/06 03:56:31;;;;;;;0.10;0.10;;;1.40;99.90;;;;;;5060028;28;20704;-67
2021/12/06 03:58:58;;;;;;;0.10;0.10;;;1.40;99.90;;;;;;5061539;28;20638;-67
2021/12/06 04:01:26;;;;;;;0.20;0.20;;;1.40;99.90;;;;;;5060706;28;20697;-67
2021/12/06 04:03:55;;;;;;;0.17;0.17;;;1.40;99.90;;;;;;5059979;28;20674;-67
2021/12/06 04:06:22;;;;;;;0.10;0.10;;;1.40;99.90;;;;;;5060225;28;20651;-67
2021/12/06 04:08:50;;;;;;;0.20;0.20;;;1.40;99.90;;;;;;5065491;28;20628;-67
2021/12/06 04:11:17;;;;;;;0.10;0.10;;;1.40;99.90;;;;;;5060780;28;20644;-67
2021/12/06 04:13:46;;;;;;;0.10;0.10;;;1.40;99.90;;;;;;5060105;28;20655;-67
2021/12/06 04:16:14;;;;;;;0.10;0.10;;;1.40;99.90;;;;;;5060616;28;20664;-67
2021/12/06 04:18:42;;;;;;;0.10;0.10;;;1.40;99.90;;;;;;5059234;28;21448;-67
2021/12/06 04:21:11;;;;;;;0.20;0.20;;;1.40;99.90;;;;;;5060037;28;20616;-66
2021/12/06 04:23:39;;;;;;;0.10;0.10;;;1.40;99.90;;;;;;5057767;28;20618;-67
2021/12/06 04:26:07;;;;;;;0.13;0.13;;;1.40;99.90;;;;;;5056915;28;20664;-67
2021/12/06 04:28:35;;;;;;;0.20;0.20;;;1.40;99.90;;;;;;5059400;28;20632;-67
2021/12/06 04:31:05;;;;;;;0.20;0.20;;;1.40;99.90;;;;;;5059712;28;20630;-68
2021/12/06 04:33:33;;;;;;;0.10;0.10;;;1.40;99.90;;;;;;5058071;28;20600;-67
2021/12/06 04:36:00;;;;;;;0.10;0.10;;;1.40;99.90;;;;;;5058284;28;20661;-67
2021/12/06 04:38:28;;;;;;;0.20;0.20;;;1.40;99.90;;;;;;5059656;28;20634;-67
2021/12/06 04:41:00;;;;;;;0.10;0.10;;;1.40;99.90;;;;;;5059304;28;20623;-69
2021/12/06 04:43:28;;;;;;;0.10;0.10;;;1.40;99.90;;;;;;5058529;28;20612;-68
2021/12/06 04:45:56;;;;;;;0.17;0.17;;;1.40;99.90;;;;;;5057900;28;20654;-67
2021/12/06 04:48:23;;;;;;;0.10;0.10;;;1.40;99.90;;;;;;5059562;28;20762;-67
2021/12/06 04:50:51;;;;;;;0.20;0.20;;;1.40;99.90;;;;;;5058568;28;20712;-68
2021/12/06 04:53:25;;;;;;;0.20;0.20;;;1.40;99.90;;;;;;5050931;28;20636;-67
2021/12/06 04:55:57;;;;;;;0.17;0.17;;;1.40;99.90;;;;;;5058153;28;20725;-67
2021/12/06 04:58:29;;;;;;;0.10;0.10;;;1.40;99.90;;;;;;5056931;28;20630;-68
2021/12/06 05:01:07;;;;;;;0.10;0.10;;;1.50;99.90;;;;;;5059020;28;20640;-67
2021/12/06 05:03:36;;;;;;;0.10;0.10;;;1.50;99.90;;;;;;5057917;28;20655;-68
2021/12/06 05:06:08;;;;;;;0.20;0.20;;;1.50;99.90;;;;;;5058726;28;20797;-67
2021/12/06 05:08:38;;;;;;;0.20;0.20;;;1.50;99.90;;;;;;5059531;28;20624;-67
2021/12/06 05:11:08;;;;;;;0.10;0.10;;;1.50;99.90;;;;;;5059532;28;20630;-68
2021/12/06 05:13:36;;;;;;;0.10;0.10;;;1.50;99.90;;;;;;5058335;28;20651;-67
2021/12/06 05:16:05;;;;;;;0.13;0.13;;;1.50;99.90;;;;;;5072563;28;20701;-67
2021/12/06 05:18:33;;;;;;;0.10;0.10;;;1.50;99.90;;;;;;5056734;28;20626;-67
2021/12/06 05:21:01;;;;;;;0.10;0.10;;;1.50;99.90;;;;;;5056636;28;20630;-67
2021/12/06 05:23:28;;;;;;;0.20;0.20;;;1.50;99.90;;;;;;5076290;28;20610;-67
2021/12/06 05:25:55;;;;;;;0.10;0.10;;;1.60;99.90;;;;;;5057424;28;20759;-67
2021/12/06 05:28:27;;;;;;;0.10;0.10;;;1.50;99.90;;;;;;5076716;28;20619;-66
2021/12/06 05:30:57;;;;;;;0.10;0.10;;;1.50;99.90;;;;;;5058045;28;20612;-67
2021/12/06 05:33:30;;;;;;;0.20;0.20;;;1.50;99.90;;;;;;5058669;28;20637;-68
2021/12/06 05:35:59;;;;;;;0.10;0.10;;;1.50;99.90;;;;;;5058226;28;20668;-67
2021/12/06 05:38:27;;;;;;;0.10;0.10;;;1.50;99.90;;;;;;5051310;28;20623;-65
2021/12/06 05:40:54;;;;;;;0.17;0.17;;;1.50;99.90;;;;;;5055063;28;20631;-66
2021/12/06 05:43:21;;;;;;;0.10;0.10;;;1.50;99.90;;;;;;5051458;28;20636;-69
2021/12/06 05:45:50;;;;;;;0.20;0.20;;;1.50;99.90;;;;;;5076019;28;20604;-70
2021/12/06 05:48:18;;;;;;;0.10;0.10;;;1.50;99.90;;;;;;5061189;28;20723;-70
2021/12/06 05:50:46;;;;;;;0.20;0.20;;;1.50;99.90;;;;;;5078210;28;20643;-70
2021/12/06 05:53:14;;;;;;;0.10;0.10;;;1.50;99.90;;;;;;5059334;28;20627;-70
2021/12/06 05:55:42;;;;;;;0.10;0.10;;;1.50;99.90;;;;;;5078346;28;20648;-70
2021/12/06 05:58:11;;;;;;;0.20;0.20;;;1.50;99.90;;;;;;5059394;28;20630;-67
2021/12/06 06:00:38;;;;;;;0.10;0.10;;;1.50;99.90;;;;;;5060248;28;20635;-69
2021/12/06 06:03:07;;;;;;;0.20;0.20;;;1.50;99.90;;;;;;5058932;28;20623;-70
2021/12/06 06:05:36;;;;;;;0.20;0.20;;;1.50;99.90;;;;;;5077896;28;20674;-70
2021/12/06 06:08:04;;;;;;;0.10;0.10;;;1.50;99.90;;;;;;5061808;28;21112;-74
2021/12/06 06:10:31;;;;;;;0.13;0.13;;;1.50;99.90;;;;;;5049998;28;20629;-70
2021/12/06 06:12:59;;;;;;;0.10;0.10;;;1.50;99.90;;;;;;5075015;28;20627;-70
2021/12/06 06:15:28;;;;;;;0.20;0.20;;;1.50;99.90;;;;;;5058059;28;20805;-70
2021/12/06 06:17:55;;;;;;;0.20;0.20;;;1.40;99.90;;;;;;5078244;28;20616;-70
2021/12/06 06:20:27;;;;;;;0.20;0.20;;;1.40;99.90;;;;;;5060045;28;20642;-71
2021/12/06 06:22:54;;;;;;;0.13;0.13;;;1.40;99.90;;;;;;5050099;28;20642;-71
2021/12/06 06:25:21;;;;;;;0.20;0.20;;;1.40;99.90;;;;;;5078194;28;20620;-69
2021/12/06 06:27:48;;;;;;;0.20;0.20;;;1.40;99.90;;;;;;5059971;28;20655;-72
2021/12/06 06:30:16;;;;;;;0.20;0.20;;;1.40;99.90;;;;;;5078967;28;20620;-70
2021/12/06 06:32:46;;;;;;;0.10;0.10;;;1.40;99.90;;;;;;5061168;28;20624;-72
2021/12/06 06:35:14;;;;;;;0.10;0.10;;;1.40;99.90;;;;;;5063583;28;20658;-70
2021/12/06 06:37:43;;;;;;;0.10;0.10;;;1.40;99.90;;;;;;5062113;28;20643;-69
2021/12/06 06:40:11;;;;;;;0.20;0.20;;;1.40;99.90;;;;;;5079027;28;20643;-70
2021/12/06 06:42:38;;;;;;;0.10;0.10;;;1.40;99.90;;;;;;5062789;28;20693;-70
2021/12/06 06:45:07;;;;;;;0.10;0.10;;;1.30;99.90;;;;;;5061147;28;20734;-70
2021/12/06 06:47:34;;;;;;;0.20;0.20;;;1.30;99.90;;;;;;5063513;28;20691;-70
2021/12/06 06:50:01;;;;;;;0.20;0.20;;;1.30;99.90;;;;;;5061177;28;20719;-70
2021/12/06 06:52:28;;;;;;;0.20;0.20;;;1.30;99.90;;;;;;5081414;28;20205;-70
2021/12/06 06:54:59;;;;;;;0.10;0.10;;;1.30;99.90;;;;;;5061912;28;20651;-70
2021/12/06 06:57:26;;;;;;;0.17;0.17;;;1.20;99.90;;;;;;5078746;28;20675;-72
2021/12/06 06:59:53;;;;;;;0.20;0.20;;;1.20;99.90;;;;;;5061859;28;20712;-69
2021/12/06 07:02:20;;;;;;;0.10;0.10;;;1.20;99.90;;;;;;5077250;28;20217;-69
2021/12/06 07:04:47;;;;;;;0.10;0.10;;;1.20;99.90;;;;;;5055543;28;20626;-69
2021/12/06 07:07:14;;;;;;;0.10;0.10;;;1.20;99.90;;;;;;5057890;28;20287;-69
2021/12/06 07:09:43;;;;;;;0.20;0.20;;;1.20;99.90;;;;;;5059193;28;20623;-71
2021/12/06 07:12:15;;;;;;;0.10;0.10;;;1.20;99.90;;;;;;5058030;28;20713;-69
2021/12/06 07:14:42;;;;;;;0.10;0.10;;;1.20;99.90;;;;;;5058653;28;20651;-68
2021/12/06 07:17:10;;;;;;;0.10;0.10;;;1.20;99.90;;;;;;5058179;28;20663;-68
2021/12/06 07:19:37;;;;;;;0.10;0.10;;;1.10;99.90;;;;;;5059263;28;20655;-69
2021/12/06 07:22:05;;;;;;;0.10;0.10;;;1.10;99.90;;;;;;5074859;28;20711;-69
2021/12/06 07:24:32;;;;;;;0.15;0.15;;;1.10;99.90;;;;;;5075496;28;20616;-69
2021/12/06 07:26:59;;;;;;;0.20;0.20;;;1.10;99.90;;;;;;5074831;28;20222;-68
2021/12/06 07:29:32;;;;;;;0.10;0.10;;;1.00;99.90;;;;;;5059824;28;20329;-70
2021/12/06 07:32:01;;;;;;;0.10;0.10;;;1.00;99.90;;;;;;5075709;28;20600;-69
2021/12/06 07:34:28;;;;;;;0.10;0.10;;;1.00;99.90;;;;;;5057016;28;20341;-69
2021/12/06 07:36:55;;;;;;;0.20;0.20;;;1.00;99.90;;;;;;5057491;28;20647;-69
2021/12/06 07:39:22;;;;;;;0.10;0.10;;;1.10;99.90;;;;;;5057893;28;20620;-69
2021/12/06 07:41:49;;;;;;;0.20;0.20;;;1.00;99.90;;;;;;5076145;28;20194;-70
2021/12/06 07:44:16;;;;;;;0.10;0.10;;;1.00;99.90;;;;;;5057171;28;20631;-70
2021/12/06 07:46:46;;;;;;;0.10;0.10;;;1.00;99.90;;;;;;5057786;28;20798;-71
2021/12/06 07:49:13;;;;;;;0.20;0.20;;;1.00;99.90;;;;;;5057895;28;20205;-69
2021/12/06 07:51:40;;;;;;;0.10;0.10;;;1.00;99.90;;;;;;5055023;28;20647;-69
2021/12/06 07:54:08;;;;;;;0.20;0.20;;;1.00;99.90;;;;;;5075702;28;20636;-68
2021/12/06 07:56:35;;;;;;;0.13;0.13;;;1.00;99.90;;;;;;5059148;28;20225;-68
2021/12/06 07:59:02;;;;;;;0.10;0.10;;;0.90;99.90;;;;;;5078046;28;20643;-69
2021/12/06 08:01:29;;;;;;;0.10;0.10;;;0.90;99.90;;;;;;5059817;28;20318;-68
2021/12/06 08:03:59;;;;;;;0.10;0.10;;;0.90;99.90;;;;;;5058887;28;20228;-68
2021/12/06 08:06:26;;;;;;;0.20;0.20;;;0.90;99.90;;;;;;5077746;28;20640;-69
2021/12/06 08:08:54;;;;;;;0.10;0.10;;;0.90;99.90;;;;;;5075530;28;20191;-69
2021/12/06 08:11:21;;;;;;;0.15;0.15;;;0.80;99.90;;;;;;5077625;28;20599;-68
2021/12/06 08:13:53;;;;;;;0.20;0.20;;;0.80;99.90;;;;;;5077059;28;20193;-69
2021/12/06 08:16:23;;;;;;;0.10;0.10;;;0.80;99.90;;;;;;5076315;28;20229;-69
2021/12/06 08:18:51;;;;;;;0.10;0.10;;;0.80;99.90;;;;;;5052973;28;20216;-68
2021/12/06 08:21:20;;;;;;;0.20;0.20;;;0.80;99.90;;;;;;5059150;28;20685;-69
2021/12/06 08:23:49;;;;;;;0.20;0.20;;;0.80;99.90;;;;;;5074915;28;20233;-67
2021/12/06 08:26:18;;;;;;;0.20;0.20;;;0.80;99.90;;;;;;5055805;28;20218;-68
2021/12/06 08:28:45;;;;;;;0.20;0.20;;;0.80;99.90;;;;;;5057759;28;20210;-66
2021/12/06 08:31:13;;;;;;;0.20;0.20;;;0.80;99.90;;;;;;5057812;28;20225;-67
2021/12/06 08:33:41;;;;;;;0.10;0.10;;;0.80;99.90;;;;;;5058160;28;20213;-67
2021/12/06 08:36:10;;;;;;;0.10;0.10;;;0.80;99.90;;;;;;5076773;28;20677;-67
2021/12/06 08:38:41;;;;;;;0.10;0.10;;;0.70;99.90;;;;;;5056964;28;20722;-67
2021/12/06 08:41:10;;;;;;;0.13;0.13;;;0.80;99.90;;;;;;5053970;28;20287;-67
2021/12/06 08:43:39;;;;;;;0.15;0.15;;;0.80;99.90;;;;;;5075922;28;20200;-67
2021/12/06 08:46:10;;;;;;;0.15;0.15;;;0.80;99.90;;;;;;5056755;28;20225;-67
2021/12/06 08:48:40;;;;;;;0.10;0.10;;;0.80;99.90;;;;;;5075662;28;20202;-67
2021/12/06 08:51:10;;;;;;;0.10;0.10;;;0.80;99.90;;;;;;5074954;28;21016;-67
2021/12/06 08:53:38;;;;;;;0.10;0.10;;;0.80;99.90;;;;;;5056514;28;20213;-67
2021/12/06 08:56:07;;;;;;;0.10;0.10;;;0.90;99.90;;;;;;5075680;28;20230;-67
2021/12/06 08:58:34;;;;;;;0.17;0.17;;;0.90;99.90;;;;;;5055879;28;20202;-67
2021/12/06 09:01:02;;;;;;;0.20;0.20;;;0.80;99.90;;;;;;5074482;28;20201;-67
2021/12/06 09:03:30;;;;;;;0.10;0.10;;;0.80;99.90;;;;;;5074120;28;20198;-67
2021/12/06 09:06:01;;;;;;;0.20;0.20;;;0.90;99.90;;;;;;5056108;28;20241;-68
2021/12/06 09:08:28;;;;;;;0.10;0.10;;;0.80;99.90;;;;;;5056919;28;20204;-67
2021/12/06 09:10:55;;;;;;;0.10;0.10;;;0.90;99.90;;;;;;5055746;28;20205;-68
2021/12/06 09:13:28;;;;;;;0.10;0.10;;;0.90;99.90;;;;;;5056705;28;20620;-67
2021/12/06 09:15:56;;;;;;;0.20;0.20;;;0.90;99.90;;;;;;5056155;28;20224;-68
2021/12/06 09:18:24;;;;;;;0.20;0.20;;;0.90;99.90;;;;;;5073974;28;20193;-67
2021/12/06 09:20:53;;;;;;;0.20;0.20;;;0.90;99.90;;;;;;5056877;28;20289;-67
2021/12/06 09:23:20;;;;;;;0.10;0.10;;;1.00;99.90;;;;;;5062000;28;20288;-68
2021/12/06 09:25:47;;;;;;;0.10;0.10;;;1.00;99.90;;;;;;5056755;28;20190;-68
2021/12/06 09:28:16;;;;;;;0.20;0.20;;;1.10;99.90;;;;;;5056156;28;20628;-68
2021/12/06 09:30:47;;;;;;;0.20;0.20;;;1.10;99.90;;;;;;5057821;28;20616;-68
2021/12/06 09:33:17;;;;;;;0.10;0.10;;;1.10;99.90;;;;;;5073960;28;20707;-68
2021/12/06 09:35:46;;;;;;;0.10;0.10;;;1.10;99.90;;;;;;5056283;28;20767;-68
2021/12/06 09:38:15;;;;;;;0.10;0.10;;;1.20;99.90;;;;;;5055831;28;20334;-68
2021/12/06 09:40:45;;;;;;;0.20;0.20;;;1.10;99.90;;;;;;5074933;28;20633;-68
2021/12/06 09:43:14;;;;;;;0.10;0.10;;;1.20;99.90;;;;;;5056580;28;20628;-69
2021/12/06 09:45:42;;;;;;;0.10;0.10;;;1.20;99.90;;;;;;5056507;28;20623;-68
2021/12/06 09:48:15;;;;;;;0.10;0.10;;;1.30;99.90;;;;;;5051182;28;20792;-68
2021/12/06 09:50:46;;;;;;;0.10;0.10;;;1.40;99.90;;;;;;5056326;28;20623;-68
2021/12/06 09:53:18;;;;;;;0.10;0.10;;;1.40;99.90;;;;;;5072691;28;20200;-68
2021/12/06 09:55:48;;;;;;;0.20;0.20;;;1.40;99.90;;;;;;5075249;28;20757;-68
2021/12/06 09:58:15;;;;;;;0.10;0.10;;;1.40;99.90;;;;;;5057098;28;20205;-69
2021/12/06 10:00:51;;;;;;;0.20;0.20;;;1.40;99.90;;;;;;5057937;28;20623;-68
2021/12/06 10:03:23;;;;;;;0.10;0.10;;;1.50;99.90;;;;;;5074839;28;20607;-68
2021/12/06 10:05:52;;;;;;;0.10;0.10;;;1.50;99.90;;;;;;5073792;28;20646;-68
2021/12/06 10:08:20;;;;;;;0.20;0.20;;;1.60;99.90;;;;;;5074435;28;20661;-68
2021/12/06 10:10:47;;;;;;;0.20;0.20;;;1.70;99.90;;;;;;5056678;28;20616;-68
2021/12/06 10:13:16;;;;;;;0.20;0.20;;;1.60;99.90;;;;;;5055288;28;20636;-69
2021/12/06 10:15:43;;;;;;;0.10;0.10;;;1.60;99.90;;;;;;5054388;28;20644;-69
2021/12/06 10:18:16;;;;;;;0.13;0.13;;;1.60;99.90;;;;;;5050142;28;20654;-68
2021/12/06 10:20:46;;;;;;;0.20;0.20;;;1.60;99.90;;;;;;5064634;28;20251;-69
2021/12/06 10:23:13;;;;;;;0.13;0.13;;;1.60;99.90;;;;;;5075260;28;20615;-68
2021/12/06 10:26:04;;;;;;;0.10;0.10;;;1.50;99.90;;;;;;5076386;28;20782;-67
2021/12/06 10:28:31;;;;;;;0.20;0.20;;;1.50;99.90;;;;;;5064232;28;20642;-68
2021/12/06 10:31:00;;;;;;;0.10;0.10;;;1.50;99.90;;;;;;5058156;28;20632;-68
2021/12/06 10:33:30;;;;;;;0.20;0.20;;;1.50;99.90;;;;;;5078616;28;20611;-68
2021/12/06 10:36:03;;;;;;;0.10;0.10;;;1.60;99.90;;;;;;5061454;28;20674;-68
2021/12/06 10:38:33;;;;;;;0.20;0.20;;;1.60;99.90;;;;;;5078385;28;20628;-68
2021/12/06 10:41:03;;;;;;;0.20;0.20;;;1.50;99.90;;;;;;5062418;28;20655;-68
2021/12/06 10:43:30;;;;;;;0.20;0.20;;;1.50;99.90;;;;;;5061255;28;20672;-68
2021/12/06 10:45:59;;;;;;;0.13;0.13;;;1.50;99.90;;;;;;5078411;28;20720;-67
2021/12/06 10:48:27;;;;;;;0.20;0.20;;;1.60;99.90;;;;;;5060904;28;20635;-68
2021/12/06 10:51:01;;;;;;;0.20;0.20;;;1.60;99.90;;;;;;5078967;28;20634;-66
2021/12/06 10:53:35;;;;;;;0.10;0.10;;;1.60;99.90;;;;;;5078023;28;20610;-68
2021/12/06 10:56:03;;;;;;;0.10;0.10;;;1.70;99.90;;;;;;5076563;28;20667;-68
2021/12/06 10:58:31;;;;;;;0.20;0.20;;;1.70;99.90;;;;;;5058378;28;20634;-68
2021/12/06 11:01:05;;;;;;;0.20;0.20;;;1.80;99.90;;;;;;5058114;28;20627;-68
2021/12/06 11:03:34;;;;;;;0.20;0.20;;;1.90;99.90;;;;;;5052399;28;20634;-69
2021/12/06 11:06:08;;;;;;;0.10;0.10;;;1.90;99.90;;;;;;5077744;28;20647;-68
2021/12/06 11:08:37;;;;;;;0.10;0.10;;;1.90;99.90;;;;;;5059753;28;20997;-69
2021/12/06 11:11:06;;;;;;;0.20;0.20;;;1.90;99.90;;;;;;5060298;28;20620;-69
2021/12/06 11:13:35;;;;;;;0.20;0.20;;;1.90;99.90;;;;;;5060606;28;20627;-69
2021/12/06 11:16:10;;;;;;;0.10;0.10;;;2.00;99.90;;;;;;5077262;28;20659;-69
2021/12/06 11:18:42;;;;;;;0.10;0.10;;;2.10;99.90;;;;;;5055711;28;20623;-69
2021/12/06 11:21:29;;;;;;;0.10;0.10;;;2.20;99.90;;;;;;5067580;28;20623;-69
2021/12/06 11:23:58;;;;;;;0.10;0.10;;;2.20;99.90;;;;;;5059724;28;20634;-69
2021/12/06 11:26:25;;;;;;;0.13;0.13;;;2.20;99.90;;;;;;5060834;28;20640;-69
2021/12/06 11:28:53;;;;;;;0.10;0.10;;;2.20;99.90;;;;;;5060987;28;20635;-68
2021/12/06 11:31:21;;;;;;;0.20;0.20;;;2.30;99.90;;;;;;5061114;28;20626;-68
2021/12/06 11:33:58;;;;;;;0.10;0.10;;;2.30;99.90;;;;;;5079968;28;20634;-68
2021/12/06 11:36:30;;;;;;;0.10;0.10;;;2.40;99.90;;;;;;5061916;28;20668;-69
2021/12/06 11:38:59;;;;;;;0.10;0.10;;;2.40;99.90;;;;;;5062050;28;20619;-69
2021/12/06 11:41:26;;;;;;;0.10;0.10;;;2.40;99.90;;;;;;5078295;28;20614;-69
2021/12/06 11:43:54;;;;;;;0.10;0.10;;;2.50;99.90;;;;;;5075955;28;20650;-69
2021/12/06 11:46:29;;;;;;;0.20;0.20;;;2.60;99.90;;;;;;5058634;28;20655;-69
2021/12/06 11:48:57;;;;;;;0.10;0.10;;;2.70;99.90;;;;;;5077275;28;20615;-69
2021/12/06 11:51:25;;;;;;;0.20;0.20;;;2.80;99.90;;;;;;5078016;28;20644;-69
2021/12/06 11:53:57;;;;;;;0.10;0.10;;;2.90;99.90;;;;;;5059161;28;20660;-69
2021/12/06 11:56:28;;;;;;;0.10;0.10;;;2.80;99.90;;;;;;5078236;28;20663;-69
2021/12/06 11:58:58;;;;;;;0.10;0.10;;;2.80;99.90;;;;;;5060437;28;20616;-69
2021/12/06 12:01:28;;;;;;;0.10;0.10;;;2.60;99.90;;;;;;5059604;28;20719;-69
2021/12/06 12:03:58;;;;;;;0.17;0.17;;;2.50;99.90;;;;;;5058235;28;20628;-69
2021/12/06 12:06:28;;;;;;;0.10;0.10;;;2.50;99.90;;;;;;5059703;28;20736;-69
2021/12/06 12:09:07;;;;;;;0.10;0.10;;;2.40;99.90;;;;;;5076237;28;20607;-69
2021/12/06 12:12:07;;;;;;;0.10;0.10;;;2.50;99.90;;;;;;5075987;28;20620;-69
2021/12/06 12:14:38;;;;;;;0.10;0.10;;;2.40;99.90;;;;;;5059183;28;20627;-69
2021/12/06 12:17:08;;;;;;;0.13;0.13;;;2.40;99.90;;;;;;5059366;28;20660;-69
2021/12/06 12:19:36;;;;;;;0.10;0.10;;;2.40;99.90;;;;;;5059112;28;20628;-69
2021/12/06 12:22:03;;;;;;;0.13;0.13;;;2.40;99.90;;;;;;5057140;28;20687;-69
2021/12/06 12:24:32;;;;;;;0.10;0.10;;;2.40;99.90;;;;;;5057549;28;21264;-69
2021/12/06 12:27:07;;;;;;;0.10;0.10;;;2.50;99.90;;;;;;5074986;28;20697;-69
2021/12/06 12:29:34;;;;;;;0.10;0.10;;;2.50;99.90;;;;;;5063682;28;20627;-69
2021/12/06 12:32:04;;;;;;;0.10;0.10;;;2.40;99.90;;;;;;5076440;28;20674;-69
2021/12/06 12:34:35;;;;;;;0.20;0.20;;;2.50;99.90;;;;;;5074000;28;20608;-69
2021/12/06 12:37:06;;;;;;;0.10;0.10;;;2.50;99.90;;;;;;5056925;28;20707;-69
2021/12/06 12:39:36;;;;;;;0.10;0.10;;;2.50;99.90;;;;;;5051468;28;20624;-69
2021/12/06 12:42:07;;;;;;;0.13;0.13;;;2.50;99.90;;;;;;5072243;28;20615;-69
2021/12/06 12:44:42;;;;;;;0.10;0.10;;;2.50;99.90;;;;;;5071958;28;20729;-69
2021/12/06 12:47:16;;;;;;;0.10;0.10;;;2.50;99.90;;;;;;5055629;28;20658;-69
2021/12/06 12:49:49;;;;;;;0.13;0.13;;;2.50;99.90;;;;;;5056524;28;20632;-69
2021/12/06 12:52:17;;;;;;;0.10;0.10;;;2.50;99.90;;;;;;5057093;28;20700;-69
2021/12/06 12:54:46;;;;;;;0.10;0.10;;;2.50;99.90;;;;;;5073015;28;20681;-69
2021/12/06 12:57:16;;;;;;;0.10;0.10;;;2.40;99.90;;;;;;5055580;28;20791;-69
2021/12/06 12:59:48;;;;;;;0.10;0.10;;;2.40;99.90;;;;;;5075632;28;20624;-69
2021/12/06 13:02:25;;;;;;;0.10;0.10;;;2.40;99.90;;;;;;5073890;28;20608;-69
2021/12/06 13:05:19;;;;;;;0.10;0.10;;;2.40;99.90;;;;;;5057123;28;20742;-69
2021/12/06 13:07:59;;;;;;;0.10;0.10;;;2.40;99.90;;;;;;5047497;28;20651;-70
2021/12/06 13:10:40;;;;;;;0.20;0.20;;;2.40;99.90;;;;;;5060298;28;20622;-69
2021/12/06 13:13:15;;;;;;;0.10;0.10;;;2.40;99.90;;;;;;5057080;28;20714;-69